Time;durP1;ratioP1;P1;durP2;ratioP2;P2;SDS_P1;SDS_P2;PMS_P1;PMS_P2;Temp;Humidity;BMP_temperature;BMP_pressure;BME280_temperature;BME280_humidity;BME280_pressure;Samples;Min_cycle;Max_cycle;Signal;HPM_P1;HPM_P2
2024/04/01 00:00:40;;;;;;;3.40;3.10;;;10.20;99.90;;;;;;5028584;28;20187;-76
2024/04/01 00:03:05;;;;;;;3.63;3.33;;;10.20;99.90;;;;;;5021319;28;20204;-76
2024/04/01 00:05:31;;;;;;;3.70;3.40;;;10.20;99.90;;;;;;5014323;28;20195;-76
2024/04/01 00:07:57;;;;;;;3.30;3.10;;;10.30;99.90;;;;;;5029497;28;20187;-76
2024/04/01 00:10:26;;;;;;;3.20;3.07;;;10.30;99.90;;;;;;5037517;28;20187;-76
2024/04/01 00:12:58;;;;;;;3.03;2.93;;;10.30;99.90;;;;;;5033220;28;20225;-76
2024/04/01 00:15:27;;;;;;;3.20;3.00;;;10.30;99.90;;;;;;5033817;28;20170;-76
2024/04/01 00:17:53;;;;;;;3.37;3.20;;;10.30;99.90;;;;;;5015297;28;20323;-77
2024/04/01 00:20:18;;;;;;;4.07;3.50;;;10.20;99.90;;;;;;5019651;28;20207;-75
2024/04/01 00:22:44;;;;;;;4.63;3.10;;;10.20;99.90;;;;;;5016204;28;20269;-75
2024/04/01 00:25:09;;;;;;;3.00;2.90;;;10.20;99.90;;;;;;5028194;28;20183;-76
2024/04/01 00:27:35;;;;;;;3.50;3.30;;;10.10;99.90;;;;;;5022469;28;20176;-76
2024/04/01 00:30:03;;;;;;;3.63;3.30;;;10.10;99.90;;;;;;5014183;28;20574;-76
2024/04/01 00:32:28;;;;;;;3.37;3.17;;;10.10;99.90;;;;;;5029523;28;20183;-76
2024/04/01 00:34:54;;;;;;;4.17;3.03;;;10.10;99.90;;;;;;5030153;28;20214;-78
2024/04/01 00:37:19;;;;;;;3.50;3.30;;;10.10;99.90;;;;;;5013120;28;20207;-76
2024/04/01 00:39:45;;;;;;;3.27;3.07;;;10.10;99.90;;;;;;5032692;28;20187;-76
2024/04/01 00:42:11;;;;;;;3.20;3.00;;;10.10;99.90;;;;;;5028858;28;20210;-76
2024/04/01 00:44:36;;;;;;;3.00;2.90;;;10.10;99.90;;;;;;5027297;28;20211;-76
2024/04/01 00:47:02;;;;;;;3.73;3.43;;;10.10;99.90;;;;;;5028321;28;20597;-76
2024/04/01 00:49:27;;;;;;;3.63;3.13;;;10.10;99.90;;;;;;5024194;28;20791;-76
2024/04/01 00:51:53;;;;;;;5.40;3.30;;;10.10;99.90;;;;;;5024942;28;20180;-76
2024/04/01 00:54:20;;;;;;;3.60;3.33;;;10.10;99.90;;;;;;5027103;28;20224;-76
2024/04/01 00:56:48;;;;;;;3.27;3.07;;;10.10;99.90;;;;;;5024704;28;20215;-76
2024/04/01 00:59:15;;;;;;;3.47;3.23;;;10.10;99.90;;;;;;5032781;28;20171;-75
2024/04/01 01:01:42;;;;;;;3.60;3.40;;;10.10;99.90;;;;;;5030432;28;20187;-75
2024/04/01 01:04:08;;;;;;;3.27;3.17;;;10.20;99.90;;;;;;5024354;28;20207;-76
2024/04/01 01:06:37;;;;;;;4.20;3.87;;;10.20;99.90;;;;;;5022777;28;20187;-76
2024/04/01 01:09:02;;;;;;;3.50;3.30;;;10.20;99.90;;;;;;5025224;28;20185;-76
2024/04/01 01:11:29;;;;;;;3.30;3.10;;;10.20;99.90;;;;;;5023504;28;20207;-76
2024/04/01 01:13:55;;;;;;;4.10;3.33;;;10.20;99.90;;;;;;5026771;28;20203;-76
2024/04/01 01:16:20;;;;;;;4.20;3.50;;;10.20;99.90;;;;;;5023340;28;20267;-76
2024/04/01 01:18:46;;;;;;;4.63;3.27;;;10.30;99.90;;;;;;5028526;28;20233;-76
2024/04/01 01:21:11;;;;;;;4.00;3.27;;;10.30;99.90;;;;;;5032210;28;20184;-76
2024/04/01 01:23:37;;;;;;;3.57;3.27;;;10.30;99.90;;;;;;5031829;28;20536;-76
2024/04/01 01:26:03;;;;;;;3.53;3.27;;;10.30;99.90;;;;;;5018088;28;20267;-76
2024/04/01 01:28:30;;;;;;;3.13;2.93;;;10.20;99.90;;;;;;5022554;28;20192;-75
2024/04/01 01:30:56;;;;;;;3.33;3.13;;;10.30;99.90;;;;;;5018091;28;20707;-77
2024/04/01 01:33:23;;;;;;;3.00;2.80;;;10.20;99.90;;;;;;5025618;28;20203;-76
2024/04/01 01:35:49;;;;;;;3.43;3.23;;;10.20;99.90;;;;;;5026139;28;20190;-77
2024/04/01 01:38:15;;;;;;;3.83;3.27;;;10.30;99.90;;;;;;5031970;28;20171;-75
2024/04/01 01:40:40;;;;;;;3.37;3.23;;;10.20;99.90;;;;;;5023648;28;20187;-76
2024/04/01 01:43:06;;;;;;;3.20;3.00;;;10.20;99.90;;;;;;5019242;28;20212;-77
2024/04/01 01:45:32;;;;;;;4.63;3.30;;;10.20;99.90;;;;;;5022944;28;20172;-76
2024/04/01 01:47:57;;;;;;;3.00;2.80;;;10.30;99.90;;;;;;5032156;28;20517;-75
2024/04/01 01:50:23;;;;;;;3.23;2.93;;;10.20;99.90;;;;;;5030008;28;20203;-76
2024/04/01 01:52:50;;;;;;;3.40;3.20;;;10.20;99.90;;;;;;5033025;28;20612;-75
2024/04/01 01:55:15;;;;;;;3.40;3.20;;;10.20;99.90;;;;;;5032187;28;20187;-75
2024/04/01 01:57:41;;;;;;;3.17;3.07;;;10.10;99.90;;;;;;5033619;28;20171;-76
2024/04/01 02:00:13;;;;;;;5.90;3.20;;;10.10;99.90;;;;;;5030627;28;20186;-76
2024/04/01 02:02:42;;;;;;;3.20;3.00;;;10.10;99.90;;;;;;5016216;28;20199;-75
2024/04/01 02:05:08;;;;;;;3.17;3.00;;;10.10;99.90;;;;;;5018285;28;20194;-76
2024/04/01 02:07:34;;;;;;;3.43;3.13;;;10.10;99.90;;;;;;5032892;28;20263;-75
2024/04/01 02:10:00;;;;;;;3.40;3.20;;;10.10;99.90;;;;;;5032681;28;20203;-75
2024/04/01 02:12:26;;;;;;;3.50;3.20;;;10.10;99.90;;;;;;5025135;28;20234;-76
2024/04/01 02:14:52;;;;;;;3.60;3.40;;;10.10;99.90;;;;;;5021891;28;20229;-75
2024/04/01 02:17:18;;;;;;;3.33;3.13;;;10.00;99.90;;;;;;5024856;28;20813;-75
2024/04/01 02:19:46;;;;;;;3.23;3.03;;;10.00;99.90;;;;;;5014804;28;20228;-76
2024/04/01 02:22:19;;;;;;;3.77;3.47;;;10.00;99.90;;;;;;5027576;28;20251;-75
2024/04/01 02:24:45;;;;;;;3.13;3.03;;;10.00;99.90;;;;;;5023002;28;20227;-76
2024/04/01 02:27:11;;;;;;;3.20;3.00;;;9.90;99.90;;;;;;5019174;28;20179;-76
2024/04/01 02:29:37;;;;;;;3.40;3.20;;;9.80;99.90;;;;;;5032179;28;20194;-77
2024/04/01 02:32:02;;;;;;;3.10;3.00;;;9.80;99.90;;;;;;5024686;28;20186;-76
2024/04/01 02:34:28;;;;;;;8.00;3.27;;;9.80;99.90;;;;;;5018222;28;20212;-76
2024/04/01 02:36:54;;;;;;;3.50;3.30;;;9.80;99.90;;;;;;5026966;28;20633;-75
2024/04/01 02:39:21;;;;;;;3.93;3.13;;;9.80;99.90;;;;;;5037221;28;20179;-76
2024/04/01 02:41:49;;;;;;;3.40;3.20;;;9.80;99.90;;;;;;5031512;28;20179;-75
2024/04/01 02:44:15;;;;;;;3.83;3.00;;;9.80;99.90;;;;;;5029917;28;20203;-75
2024/04/01 02:46:41;;;;;;;3.53;3.17;;;9.70;99.90;;;;;;5024425;28;20179;-75
2024/04/01 02:49:09;;;;;;;3.67;3.37;;;9.70;99.90;;;;;;5021148;28;20179;-75
2024/04/01 02:51:35;;;;;;;3.67;3.47;;;9.60;99.90;;;;;;5016751;28;20602;-76
2024/04/01 02:54:01;;;;;;;3.50;3.23;;;9.70;99.90;;;;;;5012000;28;20288;-75
2024/04/01 02:56:27;;;;;;;3.60;3.20;;;9.60;99.90;;;;;;5017360;28;20178;-74
2024/04/01 02:58:53;;;;;;;3.90;3.60;;;9.50;99.90;;;;;;5024050;28;20167;-76
2024/04/01 03:01:18;;;;;;;3.80;3.50;;;9.50;99.90;;;;;;5016659;28;20176;-75
2024/04/01 03:03:50;;;;;;;3.63;3.33;;;9.50;99.90;;;;;;5023063;28;20230;-75
2024/04/01 03:06:16;;;;;;;3.90;3.40;;;9.50;99.90;;;;;;5027690;28;20306;-75
2024/04/01 03:08:42;;;;;;;3.47;3.23;;;9.50;99.90;;;;;;5031014;28;20254;-75
2024/04/01 03:11:07;;;;;;;3.40;3.20;;;9.50;99.90;;;;;;5029269;28;20341;-75
2024/04/01 03:13:33;;;;;;;3.67;3.43;;;9.50;99.90;;;;;;5031028;28;20187;-75
2024/04/01 03:15:59;;;;;;;3.80;3.60;;;9.50;99.90;;;;;;5030574;28;20269;-75
2024/04/01 03:18:26;;;;;;;3.50;3.30;;;9.60;99.90;;;;;;5030041;28;20164;-75
2024/04/01 03:20:52;;;;;;;4.67;3.07;;;9.50;99.90;;;;;;5021986;28;20199;-75
2024/04/01 03:23:18;;;;;;;3.80;3.50;;;9.40;99.90;;;;;;5013708;28;20621;-75
2024/04/01 03:25:50;;;;;;;3.77;3.57;;;9.50;99.90;;;;;;5026336;28;20176;-75
2024/04/01 03:28:16;;;;;;;3.97;3.67;;;9.40;99.90;;;;;;5034570;28;20226;-75
2024/04/01 03:30:42;;;;;;;3.70;3.50;;;9.40;99.90;;;;;;5034542;28;20226;-75
2024/04/01 03:33:08;;;;;;;4.20;3.90;;;9.40;99.90;;;;;;5034444;28;20700;-75
2024/04/01 03:35:33;;;;;;;4.60;3.67;;;9.40;99.90;;;;;;5032740;28;20661;-75
2024/04/01 03:37:59;;;;;;;4.00;3.60;;;9.40;99.90;;;;;;5034142;28;20191;-75
2024/04/01 03:40:25;;;;;;;3.87;3.57;;;9.40;99.90;;;;;;5033207;28;20172;-75
2024/04/01 03:42:50;;;;;;;3.60;3.40;;;9.40;99.90;;;;;;5039838;28;20661;-75
2024/04/01 03:45:16;;;;;;;3.50;3.30;;;9.40;99.90;;;;;;5023803;28;20176;-74
2024/04/01 03:47:41;;;;;;;5.53;4.07;;;9.30;99.90;;;;;;5014235;28;20161;-74
2024/04/01 03:50:11;;;;;;;5.73;4.13;;;9.30;99.90;;;;;;5014591;28;20679;-74
2024/04/01 03:52:37;;;;;;;7.47;4.47;;;9.40;99.90;;;;;;5034510;28;20710;-74
2024/04/01 03:55:03;;;;;;;4.37;3.97;;;9.30;99.90;;;;;;5034152;28;20257;-74
2024/04/01 03:57:28;;;;;;;4.13;3.73;;;9.40;99.90;;;;;;5033080;28;20258;-74
2024/04/01 03:59:54;;;;;;;4.13;3.83;;;9.30;99.90;;;;;;5038156;28;20186;-75
2024/04/01 04:02:19;;;;;;;4.63;3.60;;;9.30;99.90;;;;;;5021932;28;20322;-75
2024/04/01 04:04:45;;;;;;;4.27;3.97;;;9.30;99.90;;;;;;5017222;28;20614;-74
2024/04/01 04:07:11;;;;;;;4.17;3.80;;;9.30;99.90;;;;;;5031962;28;20205;-74
2024/04/01 04:09:37;;;;;;;4.10;3.80;;;9.30;99.90;;;;;;5035568;28;20231;-75
2024/04/01 04:12:03;;;;;;;4.67;4.33;;;9.40;99.90;;;;;;5036318;28;20182;-74
2024/04/01 04:14:30;;;;;;;3.93;3.73;;;9.40;99.90;;;;;;5035201;28;20668;-74
2024/04/01 04:16:56;;;;;;;4.50;4.20;;;9.40;99.90;;;;;;5026325;28;20187;-75
2024/04/01 04:19:21;;;;;;;4.17;3.77;;;9.40;99.90;;;;;;5030800;28;20194;-74
2024/04/01 04:21:47;;;;;;;4.20;3.90;;;9.40;99.90;;;;;;5024957;28;20677;-74
2024/04/01 04:24:16;;;;;;;4.30;4.00;;;9.40;99.90;;;;;;5015257;28;20234;-74
2024/04/01 04:26:42;;;;;;;4.10;3.90;;;9.50;99.90;;;;;;5019752;28;20183;-75
2024/04/01 04:29:08;;;;;;;5.90;4.17;;;9.50;99.90;;;;;;5018813;28;20179;-76
2024/04/01 04:31:34;;;;;;;4.43;4.13;;;9.50;99.90;;;;;;5031508;28;20195;-75
2024/04/01 04:34:00;;;;;;;4.20;3.63;;;9.60;99.90;;;;;;5034646;28;20190;-75
2024/04/01 04:36:26;;;;;;;3.97;3.60;;;9.70;99.90;;;;;;5017607;28;20183;-76
2024/04/01 04:38:53;;;;;;;4.20;4.00;;;9.70;99.90;;;;;;5014466;28;20254;-75
2024/04/01 04:41:19;;;;;;;4.10;3.70;;;9.70;99.90;;;;;;5013935;28;20677;-76
2024/04/01 04:43:44;;;;;;;5.00;3.77;;;9.80;99.90;;;;;;5029084;28;20688;-76
2024/04/01 04:46:11;;;;;;;4.03;3.60;;;9.80;99.90;;;;;;5019687;28;20183;-75
2024/04/01 04:48:39;;;;;;;4.00;3.80;;;9.80;99.90;;;;;;5032333;28;20278;-75
2024/04/01 04:51:05;;;;;;;3.77;3.57;;;9.80;99.90;;;;;;5031331;28;20295;-76
2024/04/01 04:53:30;;;;;;;3.87;3.57;;;9.80;99.90;;;;;;5015074;28;20287;-75
2024/04/01 04:55:56;;;;;;;4.07;3.77;;;9.90;99.90;;;;;;5026094;28;20546;-76
2024/04/01 04:58:22;;;;;;;4.33;4.00;;;9.90;99.90;;;;;;5032649;28;20171;-75
2024/04/01 05:00:49;;;;;;;6.10;4.60;;;9.90;99.90;;;;;;5032916;28;20249;-76
2024/04/01 05:03:14;;;;;;;4.07;3.70;;;10.00;99.90;;;;;;5030510;28;20183;-75
2024/04/01 05:05:40;;;;;;;4.33;4.10;;;10.00;99.90;;;;;;5020450;28;20184;-75
2024/04/01 05:08:06;;;;;;;4.13;3.80;;;9.90;99.90;;;;;;5031226;28;20203;-75
2024/04/01 05:10:31;;;;;;;3.90;3.70;;;9.90;99.90;;;;;;5028151;28;20271;-76
2024/04/01 05:12:57;;;;;;;4.10;3.57;;;9.90;99.90;;;;;;5019272;28;20223;-76
2024/04/01 05:15:23;;;;;;;3.97;3.60;;;9.90;99.90;;;;;;5015968;28;20179;-76
2024/04/01 05:17:49;;;;;;;3.93;3.73;;;9.90;99.90;;;;;;5032131;28;20270;-76
2024/04/01 05:20:15;;;;;;;7.07;4.03;;;9.90;99.90;;;;;;5024378;28;20586;-76
2024/04/01 05:22:40;;;;;;;4.33;4.03;;;9.90;99.90;;;;;;5029886;28;20191;-76
2024/04/01 05:25:07;;;;;;;3.87;3.60;;;10.00;99.90;;;;;;5030126;28;20184;-76
2024/04/01 05:27:32;;;;;;;4.27;3.73;;;10.00;99.90;;;;;;5026112;28;20180;-76
2024/04/01 05:30:03;;;;;;;4.40;3.80;;;10.00;99.90;;;;;;5012792;28;20244;-76
2024/04/01 05:32:32;;;;;;;4.17;3.80;;;10.00;99.90;;;;;;5013437;28;20196;-76
2024/04/01 05:35:00;;;;;;;3.83;3.63;;;10.10;99.90;;;;;;5026687;28;20191;-76
2024/04/01 05:37:26;;;;;;;4.37;4.00;;;10.10;99.90;;;;;;5026648;28;20176;-75
2024/04/01 05:39:52;;;;;;;4.30;3.90;;;10.10;99.90;;;;;;5012225;28;20171;-76
2024/04/01 05:42:21;;;;;;;4.27;4.00;;;10.10;99.90;;;;;;5012786;28;20203;-76
2024/04/01 05:44:47;;;;;;;3.83;3.57;;;10.10;99.90;;;;;;5012233;28;20688;-75
2024/04/01 05:47:14;;;;;;;4.13;3.83;;;10.10;99.90;;;;;;5016397;28;20306;-76
2024/04/01 05:49:39;;;;;;;3.87;3.57;;;10.10;99.90;;;;;;5020535;28;20183;-77
2024/04/01 05:52:05;;;;;;;4.10;3.80;;;10.10;99.90;;;;;;5025765;28;20175;-76
2024/04/01 05:54:31;;;;;;;3.60;3.40;;;10.10;99.90;;;;;;5031953;28;20183;-76
2024/04/01 05:56:58;;;;;;;3.97;3.67;;;10.10;99.90;;;;;;5020816;28;20560;-75
2024/04/01 05:59:27;;;;;;;4.80;3.70;;;10.10;99.90;;;;;;5024476;28;20202;-74
2024/04/01 06:01:54;;;;;;;4.20;3.90;;;10.00;99.90;;;;;;5027919;28;20579;-76
2024/04/01 06:04:21;;;;;;;4.20;3.80;;;10.00;99.90;;;;;;5023093;28;20207;-75
2024/04/01 06:06:47;;;;;;;4.10;3.80;;;10.00;99.90;;;;;;5018847;28;20203;-75
2024/04/01 06:09:16;;;;;;;4.67;4.20;;;10.00;99.90;;;;;;5021370;28;20658;-75
2024/04/01 06:11:42;;;;;;;5.10;3.90;;;10.00;99.90;;;;;;5011759;28;20308;-75
2024/04/01 06:14:08;;;;;;;3.60;3.40;;;10.00;99.90;;;;;;5012141;28;20199;-75
2024/04/01 06:16:37;;;;;;;4.23;3.83;;;10.10;99.90;;;;;;5017339;28;20188;-74
2024/04/01 06:19:04;;;;;;;4.17;3.77;;;10.10;99.90;;;;;;5018459;28;20278;-74
2024/04/01 06:21:30;;;;;;;3.93;3.63;;;10.20;99.90;;;;;;5014894;28;20729;-75
2024/04/01 06:23:56;;;;;;;4.40;4.00;;;10.30;99.90;;;;;;5021407;28;20298;-74
2024/04/01 06:26:21;;;;;;;6.10;4.00;;;10.30;99.90;;;;;;5025551;28;20180;-74
2024/04/01 06:28:50;;;;;;;3.97;3.70;;;10.40;99.90;;;;;;5031449;28;20194;-74
2024/04/01 06:31:16;;;;;;;4.10;3.80;;;10.30;99.90;;;;;;5025395;28;20735;-75
2024/04/01 06:33:42;;;;;;;7.53;3.40;;;10.40;99.90;;;;;;5011255;28;20196;-74
2024/04/01 06:36:09;;;;;;;4.00;3.60;;;10.40;99.90;;;;;;5023752;28;20238;-74
2024/04/01 06:38:36;;;;;;;4.40;4.00;;;10.40;99.90;;;;;;5015006;28;20869;-75
2024/04/01 06:41:01;;;;;;;4.13;3.83;;;10.40;99.90;;;;;;5017269;28;20258;-75
2024/04/01 06:43:27;;;;;;;3.90;3.60;;;10.40;99.90;;;;;;5030201;28;20203;-74
2024/04/01 06:45:53;;;;;;;4.20;3.80;;;10.50;99.90;;;;;;5030000;28;20172;-74
2024/04/01 06:48:19;;;;;;;4.30;4.00;;;10.50;99.90;;;;;;5010493;28;20172;-74
2024/04/01 06:50:44;;;;;;;4.20;3.90;;;10.40;99.90;;;;;;5030726;28;20203;-74
2024/04/01 06:53:10;;;;;;;5.27;3.90;;;10.40;99.90;;;;;;5028702;28;20200;-74
2024/04/01 06:55:36;;;;;;;4.37;4.07;;;10.40;99.90;;;;;;5027379;28;20522;-74
2024/04/01 06:58:02;;;;;;;4.73;4.17;;;10.50;99.90;;;;;;5030389;28;20225;-74
2024/04/01 07:00:28;;;;;;;3.97;3.70;;;10.50;99.90;;;;;;5030859;28;20187;-74
2024/04/01 07:02:53;;;;;;;7.90;4.43;;;10.50;99.90;;;;;;5029219;28;20183;-74
2024/04/01 07:05:19;;;;;;;5.03;4.17;;;10.60;99.90;;;;;;5018333;28;20182;-74
2024/04/01 07:07:44;;;;;;;5.63;3.90;;;10.60;99.90;;;;;;5023009;28;20266;-73
2024/04/01 07:10:11;;;;;;;4.70;4.27;;;10.60;99.90;;;;;;5030002;28;20211;-74
2024/04/01 07:12:37;;;;;;;4.40;4.10;;;10.60;99.90;;;;;;5018017;28;20176;-74
2024/04/01 07:15:03;;;;;;;6.27;4.77;;;10.60;99.90;;;;;;5027981;28;20562;-74
2024/04/01 07:17:28;;;;;;;4.77;4.47;;;10.50;99.90;;;;;;5026142;28;20184;-74
2024/04/01 07:19:54;;;;;;;4.70;4.40;;;10.50;99.90;;;;;;5015115;28;20188;-74
2024/04/01 07:22:20;;;;;;;4.50;3.90;;;10.60;99.90;;;;;;5015792;28;20184;-73
2024/04/01 07:24:46;;;;;;;4.20;3.90;;;10.60;99.90;;;;;;5030120;28;20218;-73
2024/04/01 07:27:12;;;;;;;4.53;4.13;;;10.60;99.90;;;;;;5034048;28;20180;-73
2024/04/01 07:29:37;;;;;;;5.13;4.20;;;10.60;99.90;;;;;;5026100;28;20649;-73
2024/04/01 07:32:03;;;;;;;4.10;3.63;;;10.60;99.90;;;;;;5024221;28;20179;-73
2024/04/01 07:34:29;;;;;;;5.63;4.17;;;10.60;99.90;;;;;;5015869;28;20195;-73
2024/04/01 07:36:55;;;;;;;4.30;3.90;;;10.60;99.90;;;;;;5031482;28;20179;-74
2024/04/01 07:39:20;;;;;;;4.13;3.83;;;10.60;99.90;;;;;;5029181;28;20180;-73
2024/04/01 07:41:46;;;;;;;4.13;3.83;;;10.60;99.90;;;;;;5019976;28;20179;-73
2024/04/01 07:44:11;;;;;;;3.80;3.60;;;10.60;99.90;;;;;;5021523;28;20677;-74
2024/04/01 07:46:37;;;;;;;4.23;3.93;;;10.50;99.90;;;;;;5015790;28;20234;-73
2024/04/01 07:49:03;;;;;;;6.23;4.17;;;10.50;99.90;;;;;;5021701;28;20172;-74
2024/04/01 07:51:28;;;;;;;4.70;4.40;;;10.50;99.90;;;;;;5032496;28;20246;-73
2024/04/01 07:53:54;;;;;;;6.87;4.97;;;10.60;99.90;;;;;;5022199;28;20200;-73
2024/04/01 07:56:21;;;;;;;4.83;4.53;;;10.60;99.90;;;;;;5018387;28;20662;-73
2024/04/01 07:58:47;;;;;;;5.30;4.80;;;10.60;99.90;;;;;;5013322;28;20198;-73
2024/04/01 08:01:13;;;;;;;5.40;4.90;;;10.50;99.90;;;;;;5016063;28;20180;-73
2024/04/01 08:03:38;;;;;;;5.73;5.30;;;10.50;99.90;;;;;;5024027;28;20254;-73
2024/04/01 08:06:04;;;;;;;5.57;5.23;;;10.40;99.90;;;;;;5033361;28;20179;-73
2024/04/01 08:08:30;;;;;;;5.70;5.20;;;10.40;99.90;;;;;;5032509;28;20171;-74
2024/04/01 08:10:56;;;;;;;6.30;5.70;;;10.40;99.90;;;;;;5032219;28;20207;-73
2024/04/01 08:13:22;;;;;;;6.07;5.50;;;10.30;99.90;;;;;;5031063;28;20191;-73
2024/04/01 08:15:58;;;;;;;5.90;5.50;;;10.30;99.90;;;;;;5028740;28;20183;-73
2024/04/01 08:18:24;;;;;;;8.00;6.47;;;10.40;99.90;;;;;;5014192;28;20700;-73
2024/04/01 08:20:49;;;;;;;5.80;5.40;;;10.30;99.90;;;;;;5031780;28;20218;-75
2024/04/01 08:23:15;;;;;;;6.57;6.07;;;10.30;99.90;;;;;;5031948;28;20312;-73
2024/04/01 08:25:40;;;;;;;6.37;5.87;;;10.30;99.90;;;;;;5031495;28;20184;-76
2024/04/01 08:28:06;;;;;;;6.80;6.30;;;10.20;99.90;;;;;;5033656;28;20556;-75
2024/04/01 08:30:32;;;;;;;6.57;6.00;;;10.20;99.90;;;;;;5036565;28;20258;-74
2024/04/01 08:32:57;;;;;;;6.67;6.17;;;10.10;99.90;;;;;;5020342;28;20632;-74
2024/04/01 08:35:23;;;;;;;6.60;6.00;;;10.00;99.90;;;;;;5024984;28;20218;-75
2024/04/01 08:37:48;;;;;;;6.93;6.20;;;10.00;99.90;;;;;;5026121;28;20181;-74
2024/04/01 08:40:14;;;;;;;7.00;6.33;;;9.90;99.90;;;;;;5045098;28;20178;-74
2024/04/01 08:42:44;;;;;;;6.70;6.20;;;9.90;99.90;;;;;;5022323;28;20180;-75
2024/04/01 08:45:13;;;;;;;7.20;6.60;;;9.90;99.90;;;;;;5028774;28;20191;-75
2024/04/01 08:47:43;;;;;;;7.17;6.47;;;9.90;99.90;;;;;;5015092;28;20180;-73
2024/04/01 08:50:24;;;;;;;7.60;7.00;;;10.00;99.90;;;;;;5016764;28;20279;-74
2024/04/01 08:53:00;;;;;;;7.30;6.60;;;10.00;99.90;;;;;;5030897;28;20562;-75
2024/04/01 08:55:28;;;;;;;7.40;6.80;;;9.90;99.90;;;;;;5026630;28;20172;-74
2024/04/01 08:57:54;;;;;;;8.10;7.30;;;9.90;99.90;;;;;;5022158;28;20175;-74
2024/04/01 09:00:21;;;;;;;8.40;7.70;;;10.00;99.90;;;;;;5032652;28;20254;-74
2024/04/01 09:02:47;;;;;;;9.00;8.10;;;10.00;99.90;;;;;;5024428;28;20696;-74
2024/04/01 09:05:13;;;;;;;8.43;7.83;;;10.00;99.90;;;;;;5014703;28;20184;-74
2024/04/01 09:07:38;;;;;;;9.37;8.57;;;10.10;99.90;;;;;;5022613;28;20189;-74
2024/04/01 09:10:04;;;;;;;10.07;9.17;;;10.00;99.90;;;;;;5030353;28;20215;-74
2024/04/01 09:12:30;;;;;;;10.77;9.80;;;10.00;99.90;;;;;;5039161;28;20187;-76
2024/04/01 09:14:55;;;;;;;10.07;9.27;;;10.10;99.90;;;;;;5020274;28;20195;-76
2024/04/01 09:17:28;;;;;;;10.67;9.67;;;10.10;99.90;;;;;;5023704;28;20214;-76
2024/04/01 09:20:00;;;;;;;10.57;9.67;;;10.10;99.90;;;;;;5023641;28;20621;-74
2024/04/01 09:22:26;;;;;;;10.70;9.80;;;10.20;99.90;;;;;;5029540;28;20227;-76
2024/04/01 09:24:52;;;;;;;11.03;10.13;;;10.20;99.90;;;;;;5022735;28;20685;-77
2024/04/01 09:27:18;;;;;;;11.17;10.17;;;10.30;99.90;;;;;;5026738;28;20172;-74
2024/04/01 09:29:43;;;;;;;11.80;10.80;;;10.30;99.90;;;;;;5029549;28;20207;-75
2024/04/01 09:32:09;;;;;;;11.13;10.23;;;10.40;99.90;;;;;;5026697;28;20268;-76
2024/04/01 09:34:35;;;;;;;11.90;10.70;;;10.50;99.90;;;;;;5021937;28;20192;-76
2024/04/01 09:37:01;;;;;;;11.47;10.47;;;10.50;99.90;;;;;;5018733;28;20183;-78
2024/04/01 09:39:28;;;;;;;11.63;10.73;;;10.50;99.90;;;;;;5020659;28;20199;-75
2024/04/01 09:41:53;;;;;;;11.13;10.13;;;10.50;99.90;;;;;;5027987;28;20245;-74
2024/04/01 09:44:19;;;;;;;11.50;10.47;;;10.50;99.90;;;;;;5026426;28;20242;-76
2024/04/01 09:46:45;;;;;;;11.50;10.33;;;10.50;99.90;;;;;;5016737;28;20223;-73
2024/04/01 09:49:11;;;;;;;11.23;10.13;;;10.50;99.90;;;;;;5013461;28;20271;-74
2024/04/01 09:51:38;;;;;;;11.67;10.67;;;10.50;99.90;;;;;;5011893;28;20218;-74
2024/04/01 09:54:03;;;;;;;11.67;10.67;;;10.60;99.90;;;;;;5023708;28;20270;-76
2024/04/01 09:56:56;;;;;;;11.63;10.70;;;10.60;99.90;;;;;;5022487;28;20267;-74
2024/04/01 09:59:27;;;;;;;10.67;9.77;;;10.50;99.90;;;;;;5015693;28;20180;-76
2024/04/01 10:02:31;;;;;;;10.00;9.10;;;10.50;99.90;;;;;;5022108;28;20610;-73
2024/04/01 10:05:18;;;;;;;10.20;9.40;;;10.50;99.90;;;;;;5030529;28;20210;-75
2024/04/01 10:08:11;;;;;;;10.23;9.33;;;10.60;99.90;;;;;;5024689;28;20191;-76
2024/04/01 10:11:20;;;;;;;9.97;9.17;;;10.70;99.90;;;;;;5033809;28;20229;-76
2024/04/01 10:14:30;;;;;;;9.13;8.43;;;10.70;99.90;;;;;;5026105;28;20195;-75
2024/04/01 10:17:24;;;;;;;8.70;7.97;;;10.80;99.90;;;;;;5020953;28;20187;-76
2024/04/01 10:19:49;;;;;;;9.30;8.50;;;10.80;99.90;;;;;;5026201;28;20228;-76
2024/04/01 10:22:52;;;;;;;8.50;7.90;;;10.70;99.90;;;;;;5029884;28;20171;-75
2024/04/01 10:25:56;;;;;;;23.33;19.37;;;10.70;99.90;;;;;;5033994;28;20174;-76
2024/04/01 10:28:40;;;;;;;12.60;11.30;;;10.70;99.90;;;;;;5022899;28;20190;-75
2024/04/01 10:31:43;;;;;;;16.87;15.20;;;10.60;99.90;;;;;;5024240;28;20827;-75
2024/04/01 10:34:46;;;;;;;41.87;28.90;;;10.70;99.90;;;;;;5021589;28;20226;-75
2024/04/01 10:37:40;;;;;;;129.37;69.27;;;10.70;99.90;;;;;;5033447;28;20209;-74
2024/04/01 10:40:24;;;;;;;66.77;45.37;;;10.80;99.90;;;;;;5055304;28;20228;-75
2024/04/01 10:43:01;;;;;;;38.03;32.70;;;10.80;99.90;;;;;;5020569;28;20226;-75
2024/04/01 10:45:52;;;;;;;25.83;23.33;;;10.80;99.90;;;;;;5015372;28;20226;-74
2024/04/01 10:48:19;;;;;;;12.30;11.30;;;10.80;99.90;;;;;;5014662;28;20180;-76
2024/04/01 10:51:29;;;;;;;13.90;10.60;;;10.90;99.90;;;;;;5015348;28;20880;-75
2024/04/01 10:54:04;;;;;;;9.67;8.87;;;11.10;99.90;;;;;;5013652;28;20223;-75
2024/04/01 10:56:50;;;;;;;8.70;8.03;;;11.10;99.90;;;;;;5015373;28;20646;-75
2024/04/01 10:59:57;;;;;;;8.07;7.37;;;11.00;99.90;;;;;;5015588;28;20234;-75
2024/04/01 11:03:00;;;;;;;7.10;6.50;;;11.10;99.90;;;;;;4993254;28;20189;-75
2024/04/01 11:06:03;;;;;;;6.33;5.73;;;11.20;99.90;;;;;;4993010;28;20208;-74
2024/04/01 11:08:34;;;;;;;6.17;5.27;;;11.30;99.90;;;;;;5017344;28;20205;-74
2024/04/01 11:11:19;;;;;;;5.53;5.03;;;11.20;99.90;;;;;;5034644;28;20207;-74
2024/04/01 11:13:46;;;;;;;5.73;4.30;;;11.30;99.90;;;;;;5034646;28;20183;-74
2024/04/01 11:16:13;;;;;;;4.83;4.43;;;11.30;99.90;;;;;;5033276;28;20187;-75
2024/04/01 11:18:38;;;;;;;4.93;4.43;;;11.30;99.90;;;;;;5033346;28;20207;-74
2024/04/01 11:21:25;;;;;;;5.17;4.77;;;11.20;99.90;;;;;;5015377;28;20242;-73
2024/04/01 11:24:09;;;;;;;4.43;4.13;;;11.20;99.90;;;;;;5015020;28;20547;-75
2024/04/01 11:27:13;;;;;;;5.00;4.60;;;11.20;99.90;;;;;;5014930;28;20207;-75
2024/04/01 11:30:06;;;;;;;5.40;4.47;;;11.20;99.90;;;;;;5014505;28;20226;-73
2024/04/01 11:32:38;;;;;;;5.00;4.50;;;11.20;99.90;;;;;;5014534;28;20180;-74
2024/04/01 11:35:15;;;;;;;9.17;4.83;;;11.20;99.90;;;;;;5026794;28;20180;-74
2024/04/01 11:38:10;;;;;;;5.80;5.23;;;11.30;99.90;;;;;;5034079;28;20175;-74
2024/04/01 11:40:36;;;;;;;4.00;3.70;;;11.40;99.90;;;;;;5034374;28;20499;-75
2024/04/01 11:43:08;;;;;;;3.80;3.50;;;11.50;99.90;;;;;;5032740;28;20238;-75
2024/04/01 11:45:38;;;;;;;5.20;4.63;;;11.50;99.90;;;;;;5034073;28;20170;-76
2024/04/01 11:48:04;;;;;;;8.00;5.40;;;11.70;99.90;;;;;;5014988;28;20185;-75
2024/04/01 11:50:31;;;;;;;18.10;14.17;;;11.80;99.90;;;;;;5014214;28;20195;-75
2024/04/01 11:53:02;;;;;;;7.43;6.13;;;11.90;99.90;;;;;;5015210;28;20164;-75
2024/04/01 11:55:28;;;;;;;7.40;5.73;;;11.70;99.90;;;;;;5016522;28;20180;-74
2024/04/01 11:57:55;;;;;;;6.30;5.63;;;11.80;99.90;;;;;;5014182;28;20637;-74
2024/04/01 12:00:20;;;;;;;4.83;4.43;;;11.80;99.90;;;;;;5014224;28;20642;-74
2024/04/01 12:02:57;;;;;;;6.87;5.03;;;11.90;99.90;;;;;;5031762;28;20233;-75
2024/04/01 12:05:23;;;;;;;8.07;4.23;;;12.00;99.90;;;;;;5034247;28;20175;-75
2024/04/01 12:07:51;;;;;;;5.37;3.67;;;12.20;99.90;;;;;;5033733;28;20171;-76
2024/04/01 12:10:19;;;;;;;6.17;3.87;;;12.20;99.90;;;;;;5033805;28;20228;-75
2024/04/01 12:12:49;;;;;;;4.30;3.90;;;12.10;99.90;;;;;;5033755;28;20195;-75
2024/04/01 12:15:18;;;;;;;4.50;4.10;;;12.20;99.90;;;;;;5021495;28;20267;-75
2024/04/01 12:17:45;;;;;;;3.83;3.40;;;12.20;99.90;;;;;;5013355;28;20250;-75
2024/04/01 12:20:12;;;;;;;4.23;3.93;;;12.10;99.90;;;;;;5013595;28;20222;-78
2024/04/01 12:22:40;;;;;;;6.03;3.10;;;12.20;99.90;;;;;;5013711;28;20584;-75
2024/04/01 12:25:16;;;;;;;4.67;3.47;;;12.20;99.90;;;;;;5013640;28;20190;-74
2024/04/01 12:27:43;;;;;;;4.30;3.50;;;12.20;99.90;;;;;;5013357;28;20172;-75
2024/04/01 12:30:09;;;;;;;3.83;3.43;;;12.30;99.90;;;;;;5013700;28;20686;-75
2024/04/01 12:32:43;;;;;;;4.23;3.87;;;12.20;99.90;;;;;;5013613;28;20210;-75
2024/04/01 12:35:14;;;;;;;4.27;3.30;;;12.20;99.90;;;;;;5013584;28;20191;-75
2024/04/01 12:37:43;;;;;;;5.40;3.67;;;12.20;99.90;;;;;;5013594;28;20168;-74
2024/04/01 12:40:10;;;;;;;4.73;3.63;;;12.20;99.90;;;;;;5013979;28;20259;-75
2024/04/01 12:42:36;;;;;;;3.37;3.10;;;12.20;99.90;;;;;;5014349;28;20176;-76
2024/04/01 12:45:03;;;;;;;6.57;3.20;;;12.10;99.90;;;;;;5013491;28;20191;-74
2024/04/01 12:47:29;;;;;;;4.57;3.60;;;12.10;99.90;;;;;;5013340;28;20203;-74
2024/04/01 12:50:02;;;;;;;3.80;3.50;;;12.00;99.90;;;;;;5013095;28;20169;-74
2024/04/01 12:52:43;;;;;;;3.77;3.37;;;12.00;99.90;;;;;;5015424;28;20517;-74
2024/04/01 12:55:28;;;;;;;3.47;2.90;;;12.00;99.90;;;;;;5013497;28;20685;-74
2024/04/01 12:58:15;;;;;;;4.50;3.83;;;12.10;99.90;;;;;;5012275;28;20172;-74